sensor_id;sensor_type;location;lat;lon;timestamp;P1;durP1;ratioP1;P2;durP2;ratioP2
56517;SDS011;42419;48.760;2.322;2023-07-28T00:00:50;3.87;;;2.87;;
56517;SDS011;42419;48.760;2.322;2023-07-28T00:03:15;2.67;;;2.47;;
56517;SDS011;42419;48.760;2.322;2023-07-28T00:05:40;2.60;;;2.37;;
56517;SDS011;42419;48.760;2.322;2023-07-28T00:08:05;2.97;;;2.73;;
56517;SDS011;42419;48.760;2.322;2023-07-28T00:10:31;4.00;;;3.30;;
56517;SDS011;42419;48.760;2.322;2023-07-28T00:12:56;2.90;;;2.30;;
56517;SDS011;42419;48.760;2.322;2023-07-28T00:15:21;3.17;;;2.87;;
56517;SDS011;42419;48.760;2.322;2023-07-28T00:17:47;3.43;;;2.50;;
56517;SDS011;42419;48.760;2.322;2023-07-28T00:20:12;3.13;;;2.17;;
56517;SDS011;42419;48.760;2.322;2023-07-28T00:22:37;8.17;;;2.60;;
56517;SDS011;42419;48.760;2.322;2023-07-28T00:25:03;3.30;;;2.53;;
56517;SDS011;42419;48.760;2.322;2023-07-28T00:27:28;3.40;;;2.30;;
56517;SDS011;42419;48.760;2.322;2023-07-28T00:29:54;3.07;;;2.37;;
56517;SDS011;42419;48.760;2.322;2023-07-28T00:32:19;2.50;;;2.30;;
56517;SDS011;42419;48.760;2.322;2023-07-28T00:34:44;3.47;;;2.53;;
56517;SDS011;42419;48.760;2.322;2023-07-28T00:37:10;3.60;;;2.53;;
56517;SDS011;42419;48.760;2.322;2023-07-28T00:39:35;3.17;;;2.70;;
56517;SDS011;42419;48.760;2.322;2023-07-28T00:42:00;3.50;;;2.43;;
56517;SDS011;42419;48.760;2.322;2023-07-28T00:44:26;3.47;;;2.33;;
56517;SDS011;42419;48.760;2.322;2023-07-28T00:46:51;3.07;;;2.50;;
56517;SDS011;42419;48.760;2.322;2023-07-28T00:49:16;3.80;;;2.50;;
56517;SDS011;42419;48.760;2.322;2023-07-28T00:51:42;2.87;;;2.50;;
56517;SDS011;42419;48.760;2.322;2023-07-28T00:54:08;2.70;;;2.50;;
56517;SDS011;42419;48.760;2.322;2023-07-28T00:56:33;2.40;;;2.20;;
56517;SDS011;42419;48.760;2.322;2023-07-28T00:58:58;4.53;;;2.50;;
56517;SDS011;42419;48.760;2.322;2023-07-28T01:01:24;3.50;;;2.50;;
56517;SDS011;42419;48.760;2.322;2023-07-28T01:03:50;2.73;;;2.53;;
56517;SDS011;42419;48.760;2.322;2023-07-28T01:09:14;3.17;;;2.27;;
56517;SDS011;42419;48.760;2.322;2023-07-28T01:11:56;3.80;;;2.53;;
56517;SDS011;42419;48.760;2.322;2023-07-28T01:14:23;2.83;;;2.57;;
56517;SDS011;42419;48.760;2.322;2023-07-28T01:16:48;4.80;;;2.57;;
56517;SDS011;42419;48.760;2.322;2023-07-28T01:19:15;4.63;;;2.20;;
56517;SDS011;42419;48.760;2.322;2023-07-28T01:21:43;3.20;;;2.20;;
56517;SDS011;42419;48.760;2.322;2023-07-28T01:24:20;2.53;;;2.20;;
56517;SDS011;42419;48.760;2.322;2023-07-28T01:26:53;3.30;;;2.67;;
56517;SDS011;42419;48.760;2.322;2023-07-28T01:29:19;2.77;;;2.00;;
56517;SDS011;42419;48.760;2.322;2023-07-28T01:31:46;2.67;;;2.47;;
56517;SDS011;42419;48.760;2.322;2023-07-28T01:34:12;3.70;;;2.30;;
56517;SDS011;42419;48.760;2.322;2023-07-28T01:36:38;2.80;;;2.10;;
56517;SDS011;42419;48.760;2.322;2023-07-28T01:39:03;2.10;;;1.90;;
56517;SDS011;42419;48.760;2.322;2023-07-28T01:41:28;2.50;;;2.27;;
56517;SDS011;42419;48.760;2.322;2023-07-28T01:43:54;3.10;;;2.20;;
56517;SDS011;42419;48.760;2.322;2023-07-28T01:46:20;3.60;;;2.80;;
56517;SDS011;42419;48.760;2.322;2023-07-28T01:48:46;3.77;;;2.47;;
56517;SDS011;42419;48.760;2.322;2023-07-28T01:51:11;2.47;;;1.80;;
56517;SDS011;42419;48.760;2.322;2023-07-28T01:53:36;2.60;;;2.23;;
56517;SDS011;42419;48.760;2.322;2023-07-28T01:56:02;2.70;;;1.83;;
56517;SDS011;42419;48.760;2.322;2023-07-28T01:58:27;2.40;;;2.10;;
56517;SDS011;42419;48.760;2.322;2023-07-28T02:00:53;2.73;;;2.00;;
56517;SDS011;42419;48.760;2.322;2023-07-28T02:03:18;2.17;;;1.97;;
56517;SDS011;42419;48.760;2.322;2023-07-28T02:05:43;3.50;;;2.00;;
56517;SDS011;42419;48.760;2.322;2023-07-28T02:08:09;3.00;;;1.87;;
56517;SDS011;42419;48.760;2.322;2023-07-28T02:10:35;3.20;;;2.23;;
56517;SDS011;42419;48.760;2.322;2023-07-28T02:13:00;2.13;;;1.93;;
56517;SDS011;42419;48.760;2.322;2023-07-28T02:15:25;3.10;;;1.80;;
56517;SDS011;42419;48.760;2.322;2023-07-28T02:17:50;2.63;;;1.90;;
56517;SDS011;42419;48.760;2.322;2023-07-28T02:20:16;6.63;;;2.07;;
56517;SDS011;42419;48.760;2.322;2023-07-28T02:22:42;2.30;;;2.00;;
56517;SDS011;42419;48.760;2.322;2023-07-28T02:25:08;2.80;;;2.00;;
56517;SDS011;42419;48.760;2.322;2023-07-28T02:27:34;3.67;;;2.37;;
56517;SDS011;42419;48.760;2.322;2023-07-28T02:30:00;2.40;;;2.17;;
56517;SDS011;42419;48.760;2.322;2023-07-28T02:32:26;2.03;;;1.67;;
56517;SDS011;42419;48.760;2.322;2023-07-28T02:34:53;2.70;;;1.67;;
56517;SDS011;42419;48.760;2.322;2023-07-28T02:37:19;2.10;;;1.90;;
56517;SDS011;42419;48.760;2.322;2023-07-28T02:39:44;2.10;;;1.90;;
56517;SDS011;42419;48.760;2.322;2023-07-28T02:42:09;2.17;;;1.97;;
56517;SDS011;42419;48.760;2.322;2023-07-28T02:44:35;8.73;;;2.20;;
56517;SDS011;42419;48.760;2.322;2023-07-28T02:47:00;2.73;;;2.10;;
56517;SDS011;42419;48.760;2.322;2023-07-28T02:49:26;2.00;;;1.80;;
56517;SDS011;42419;48.760;2.322;2023-07-28T02:51:51;2.40;;;2.00;;
56517;SDS011;42419;48.760;2.322;2023-07-28T02:54:16;2.63;;;2.10;;
56517;SDS011;42419;48.760;2.322;2023-07-28T02:56:42;1.70;;;1.60;;
56517;SDS011;42419;48.760;2.322;2023-07-28T02:59:07;1.73;;;1.63;;
56517;SDS011;42419;48.760;2.322;2023-07-28T03:01:32;2.07;;;1.87;;
56517;SDS011;42419;48.760;2.322;2023-07-28T03:04:01;1.63;;;1.53;;
56517;SDS011;42419;48.760;2.322;2023-07-28T03:06:26;2.33;;;1.60;;
56517;SDS011;42419;48.760;2.322;2023-07-28T03:08:52;2.80;;;2.23;;
56517;SDS011;42419;48.760;2.322;2023-07-28T03:11:17;2.70;;;1.40;;
56517;SDS011;42419;48.760;2.322;2023-07-28T03:13:43;2.53;;;1.80;;
56517;SDS011;42419;48.760;2.322;2023-07-28T03:16:08;2.40;;;1.67;;
56517;SDS011;42419;48.760;2.322;2023-07-28T03:18:34;2.43;;;1.70;;
56517;SDS011;42419;48.760;2.322;2023-07-28T03:21:00;1.77;;;1.60;;
56517;SDS011;42419;48.760;2.322;2023-07-28T03:23:25;3.97;;;1.67;;
56517;SDS011;42419;48.760;2.322;2023-07-28T03:25:50;2.43;;;1.77;;
56517;SDS011;42419;48.760;2.322;2023-07-28T03:28:16;4.47;;;2.27;;
56517;SDS011;42419;48.760;2.322;2023-07-28T03:30:41;2.33;;;1.80;;
56517;SDS011;42419;48.760;2.322;2023-07-28T03:33:07;2.20;;;2.00;;
56517;SDS011;42419;48.760;2.322;2023-07-28T03:35:32;2.30;;;1.57;;
56517;SDS011;42419;48.760;2.322;2023-07-28T03:37:57;2.37;;;2.00;;
56517;SDS011;42419;48.760;2.322;2023-07-28T03:40:23;1.90;;;1.50;;
56517;SDS011;42419;48.760;2.322;2023-07-28T03:42:48;3.23;;;2.20;;
56517;SDS011;42419;48.760;2.322;2023-07-28T03:45:13;2.30;;;1.70;;
56517;SDS011;42419;48.760;2.322;2023-07-28T03:47:39;2.20;;;1.83;;
56517;SDS011;42419;48.760;2.322;2023-07-28T03:50:05;4.13;;;1.70;;
56517;SDS011;42419;48.760;2.322;2023-07-28T03:52:30;2.40;;;2.20;;
56517;SDS011;42419;48.760;2.322;2023-07-28T03:54:56;2.10;;;1.90;;
56517;SDS011;42419;48.760;2.322;2023-07-28T03:57:21;3.90;;;2.13;;
56517;SDS011;42419;48.760;2.322;2023-07-28T03:59:46;3.10;;;2.10;;
56517;SDS011;42419;48.760;2.322;2023-07-28T04:02:12;2.67;;;1.73;;
56517;SDS011;42419;48.760;2.322;2023-07-28T04:04:37;7.50;;;2.70;;
56517;SDS011;42419;48.760;2.322;2023-07-28T04:07:02;5.37;;;2.50;;
56517;SDS011;42419;48.760;2.322;2023-07-28T04:09:28;3.13;;;1.90;;
56517;SDS011;42419;48.760;2.322;2023-07-28T04:11:53;3.93;;;2.23;;
56517;SDS011;42419;48.760;2.322;2023-07-28T04:14:18;2.73;;;2.23;;
56517;SDS011;42419;48.760;2.322;2023-07-28T04:16:44;2.90;;;2.30;;
56517;SDS011;42419;48.760;2.322;2023-07-28T04:19:09;3.20;;;1.90;;
56517;SDS011;42419;48.760;2.322;2023-07-28T04:21:34;5.77;;;2.33;;
56517;SDS011;42419;48.760;2.322;2023-07-28T04:23:59;2.63;;;2.00;;
56517;SDS011;42419;48.760;2.322;2023-07-28T04:26:25;3.80;;;2.67;;
56517;SDS011;42419;48.760;2.322;2023-07-28T04:28:50;2.70;;;1.90;;
56517;SDS011;42419;48.760;2.322;2023-07-28T04:31:16;2.10;;;1.53;;
56517;SDS011;42419;48.760;2.322;2023-07-28T04:33:42;3.03;;;2.07;;
56517;SDS011;42419;48.760;2.322;2023-07-28T04:36:07;4.20;;;1.93;;
56517;SDS011;42419;48.760;2.322;2023-07-28T04:38:33;3.23;;;1.93;;
56517;SDS011;42419;48.760;2.322;2023-07-28T04:40:58;2.23;;;1.80;;
56517;SDS011;42419;48.760;2.322;2023-07-28T04:43:23;2.33;;;1.90;;
56517;SDS011;42419;48.760;2.322;2023-07-28T04:45:49;2.10;;;1.70;;
56517;SDS011;42419;48.760;2.322;2023-07-28T04:48:14;2.60;;;1.67;;
56517;SDS011;42419;48.760;2.322;2023-07-28T04:50:39;3.40;;;1.90;;
56517;SDS011;42419;48.760;2.322;2023-07-28T04:53:05;1.97;;;1.70;;
56517;SDS011;42419;48.760;2.322;2023-07-28T04:55:30;5.73;;;1.93;;
56517;SDS011;42419;48.760;2.322;2023-07-28T04:57:56;3.00;;;1.83;;
56517;SDS011;42419;48.760;2.322;2023-07-28T05:00:21;3.10;;;1.77;;
56517;SDS011;42419;48.760;2.322;2023-07-28T05:02:47;1.60;;;1.50;;
56517;SDS011;42419;48.760;2.322;2023-07-28T05:05:13;1.60;;;1.40;;
56517;SDS011;42419;48.760;2.322;2023-07-28T05:07:38;3.27;;;1.60;;
56517;SDS011;42419;48.760;2.322;2023-07-28T05:10:03;2.03;;;1.17;;
56517;SDS011;42419;48.760;2.322;2023-07-28T05:12:29;1.60;;;1.37;;
56517;SDS011;42419;48.760;2.322;2023-07-28T05:14:57;1.60;;;1.50;;
56517;SDS011;42419;48.760;2.322;2023-07-28T05:17:23;2.23;;;1.53;;
56517;SDS011;42419;48.760;2.322;2023-07-28T05:19:49;1.60;;;1.33;;
56517;SDS011;42419;48.760;2.322;2023-07-28T05:22:15;2.17;;;1.47;;
56517;SDS011;42419;48.760;2.322;2023-07-28T05:24:40;2.80;;;1.90;;
56517;SDS011;42419;48.760;2.322;2023-07-28T05:27:05;1.90;;;1.70;;
56517;SDS011;42419;48.760;2.322;2023-07-28T05:29:31;2.57;;;1.57;;
56517;SDS011;42419;48.760;2.322;2023-07-28T05:31:58;5.33;;;1.50;;
56517;SDS011;42419;48.760;2.322;2023-07-28T05:34:23;1.97;;;1.40;;
56517;SDS011;42419;48.760;2.322;2023-07-28T05:36:49;4.20;;;1.53;;
56517;SDS011;42419;48.760;2.322;2023-07-28T05:39:14;1.83;;;1.50;;
56517;SDS011;42419;48.760;2.322;2023-07-28T05:41:39;3.10;;;1.40;;
56517;SDS011;42419;48.760;2.322;2023-07-28T05:44:05;1.90;;;1.50;;
56517;SDS011;42419;48.760;2.322;2023-07-28T05:46:30;2.23;;;1.50;;
56517;SDS011;42419;48.760;2.322;2023-07-28T05:48:56;2.70;;;1.70;;
56517;SDS011;42419;48.760;2.322;2023-07-28T05:51:23;2.77;;;1.50;;
56517;SDS011;42419;48.760;2.322;2023-07-28T05:53:49;1.80;;;1.50;;
56517;SDS011;42419;48.760;2.322;2023-07-28T05:56:14;1.90;;;1.60;;
56517;SDS011;42419;48.760;2.322;2023-07-28T05:58:39;2.40;;;1.57;;
56517;SDS011;42419;48.760;2.322;2023-07-28T06:01:05;2.50;;;1.60;;
56517;SDS011;42419;48.760;2.322;2023-07-28T06:03:30;1.93;;;1.40;;
56517;SDS011;42419;48.760;2.322;2023-07-28T06:05:56;2.87;;;1.53;;
56517;SDS011;42419;48.760;2.322;2023-07-28T06:08:21;1.60;;;1.50;;
56517;SDS011;42419;48.760;2.322;2023-07-28T06:10:47;2.60;;;1.50;;
56517;SDS011;42419;48.760;2.322;2023-07-28T06:13:12;3.87;;;1.70;;
56517;SDS011;42419;48.760;2.322;2023-07-28T06:15:41;3.33;;;2.10;;
56517;SDS011;42419;48.760;2.322;2023-07-28T06:18:07;1.47;;;1.33;;
56517;SDS011;42419;48.760;2.322;2023-07-28T06:20:32;1.63;;;1.53;;
56517;SDS011;42419;48.760;2.322;2023-07-28T06:22:59;2.43;;;1.60;;
56517;SDS011;42419;48.760;2.322;2023-07-28T06:25:25;1.97;;;1.63;;
56517;SDS011;42419;48.760;2.322;2023-07-28T06:27:50;3.07;;;2.00;;
56517;SDS011;42419;48.760;2.322;2023-07-28T06:30:15;2.17;;;1.77;;
56517;SDS011;42419;48.760;2.322;2023-07-28T06:32:41;1.63;;;1.53;;
56517;SDS011;42419;48.760;2.322;2023-07-28T06:35:06;2.53;;;2.00;;
56517;SDS011;42419;48.760;2.322;2023-07-28T06:37:32;2.53;;;1.57;;
56517;SDS011;42419;48.760;2.322;2023-07-28T06:39:58;3.23;;;1.80;;
56517;SDS011;42419;48.760;2.322;2023-07-28T06:42:24;4.07;;;1.77;;
56517;SDS011;42419;48.760;2.322;2023-07-28T06:44:50;2.23;;;1.47;;
56517;SDS011;42419;48.760;2.322;2023-07-28T06:47:18;2.73;;;1.83;;
56517;SDS011;42419;48.760;2.322;2023-07-28T06:49:44;2.73;;;2.10;;
56517;SDS011;42419;48.760;2.322;2023-07-28T06:52:09;2.37;;;1.80;;
56517;SDS011;42419;48.760;2.322;2023-07-28T06:54:34;1.77;;;1.63;;
56517;SDS011;42419;48.760;2.322;2023-07-28T06:57:00;2.87;;;1.43;;
56517;SDS011;42419;48.760;2.322;2023-07-28T06:59:25;2.50;;;1.83;;
56517;SDS011;42419;48.760;2.322;2023-07-28T07:01:51;2.37;;;1.87;;
56517;SDS011;42419;48.760;2.322;2023-07-28T07:04:16;2.60;;;1.87;;
56517;SDS011;42419;48.760;2.322;2023-07-28T07:06:42;8.23;;;1.87;;
56517;SDS011;42419;48.760;2.322;2023-07-28T07:09:07;2.10;;;1.83;;
56517;SDS011;42419;48.760;2.322;2023-07-28T07:11:33;2.50;;;1.70;;
56517;SDS011;42419;48.760;2.322;2023-07-28T07:13:58;2.33;;;1.93;;
56517;SDS011;42419;48.760;2.322;2023-07-28T07:16:23;2.30;;;1.77;;
56517;SDS011;42419;48.760;2.322;2023-07-28T07:18:50;1.70;;;1.50;;
56517;SDS011;42419;48.760;2.322;2023-07-28T07:21:16;1.60;;;1.50;;
56517;SDS011;42419;48.760;2.322;2023-07-28T07:23:41;3.03;;;1.67;;
56517;SDS011;42419;48.760;2.322;2023-07-28T07:26:07;2.50;;;1.47;;
56517;SDS011;42419;48.760;2.322;2023-07-28T07:28:32;1.67;;;1.57;;
56517;SDS011;42419;48.760;2.322;2023-07-28T07:31:00;5.10;;;1.60;;
56517;SDS011;42419;48.760;2.322;2023-07-28T07:33:25;3.63;;;1.93;;
56517;SDS011;42419;48.760;2.322;2023-07-28T07:35:51;5.30;;;2.03;;
56517;SDS011;42419;48.760;2.322;2023-07-28T07:38:16;1.60;;;1.50;;
56517;SDS011;42419;48.760;2.322;2023-07-28T07:40:41;1.83;;;1.70;;
56517;SDS011;42419;48.760;2.322;2023-07-28T07:43:07;3.00;;;2.00;;
56517;SDS011;42419;48.760;2.322;2023-07-28T07:45:32;3.20;;;1.80;;
56517;SDS011;42419;48.760;2.322;2023-07-28T07:47:58;4.10;;;1.87;;
56517;SDS011;42419;48.760;2.322;2023-07-28T07:50:24;1.90;;;1.53;;
56517;SDS011;42419;48.760;2.322;2023-07-28T07:52:51;3.20;;;1.60;;
56517;SDS011;42419;48.760;2.322;2023-07-28T07:55:17;2.50;;;1.40;;
56517;SDS011;42419;48.760;2.322;2023-07-28T07:57:42;2.10;;;1.67;;
56517;SDS011;42419;48.760;2.322;2023-07-28T08:00:07;1.73;;;1.50;;
56517;SDS011;42419;48.760;2.322;2023-07-28T08:02:34;2.70;;;1.30;;
56517;SDS011;42419;48.760;2.322;2023-07-28T08:05:00;3.33;;;1.97;;
56517;SDS011;42419;48.760;2.322;2023-07-28T08:07:25;2.27;;;1.40;;
56517;SDS011;42419;48.760;2.322;2023-07-28T08:09:51;3.60;;;2.10;;
56517;SDS011;42419;48.760;2.322;2023-07-28T08:12:16;2.80;;;1.43;;
56517;SDS011;42419;48.760;2.322;2023-07-28T08:14:42;2.43;;;1.37;;
56517;SDS011;42419;48.760;2.322;2023-07-28T08:17:08;1.83;;;1.40;;
56517;SDS011;42419;48.760;2.322;2023-07-28T08:19:34;2.07;;;1.47;;
56517;SDS011;42419;48.760;2.322;2023-07-28T08:21:59;1.43;;;1.23;;
56517;SDS011;42419;48.760;2.322;2023-07-28T08:24:26;1.70;;;1.30;;
56517;SDS011;42419;48.760;2.322;2023-07-28T08:26:51;2.10;;;1.90;;
56517;SDS011;42419;48.760;2.322;2023-07-28T08:29:16;1.70;;;1.40;;
56517;SDS011;42419;48.760;2.322;2023-07-28T08:31:42;2.30;;;2.00;;
56517;SDS011;42419;48.760;2.322;2023-07-28T08:34:07;2.50;;;1.60;;
56517;SDS011;42419;48.760;2.322;2023-07-28T08:36:33;1.60;;;1.30;;
56517;SDS011;42419;48.760;2.322;2023-07-28T08:38:58;4.23;;;1.80;;
56517;SDS011;42419;48.760;2.322;2023-07-28T08:41:24;2.67;;;1.30;;
56517;SDS011;42419;48.760;2.322;2023-07-28T08:43:53;2.07;;;1.50;;
56517;SDS011;42419;48.760;2.322;2023-07-28T08:46:19;3.30;;;1.90;;
56517;SDS011;42419;48.760;2.322;2023-07-28T08:48:45;4.20;;;1.53;;
56517;SDS011;42419;48.760;2.322;2023-07-28T08:51:10;1.40;;;1.20;;
56517;SDS011;42419;48.760;2.322;2023-07-28T08:53:37;2.53;;;1.53;;
56517;SDS011;42419;48.760;2.322;2023-07-28T08:56:03;2.87;;;1.40;;
56517;SDS011;42419;48.760;2.322;2023-07-28T08:58:29;2.00;;;1.57;;
56517;SDS011;42419;48.760;2.322;2023-07-28T09:00:54;1.40;;;1.27;;
56517;SDS011;42419;48.760;2.322;2023-07-28T09:03:20;2.10;;;1.70;;
56517;SDS011;42419;48.760;2.322;2023-07-28T09:05:46;1.70;;;1.40;;
56517;SDS011;42419;48.760;2.322;2023-07-28T09:08:12;3.10;;;1.80;;
56517;SDS011;42419;48.760;2.322;2023-07-28T09:10:45;2.17;;;1.50;;
56517;SDS011;42419;48.760;2.322;2023-07-28T09:13:12;1.70;;;1.30;;
56517;SDS011;42419;48.760;2.322;2023-07-28T09:15:38;3.17;;;1.23;;
56517;SDS011;42419;48.760;2.322;2023-07-28T09:18:07;1.80;;;1.40;;
56517;SDS011;42419;48.760;2.322;2023-07-28T09:20:37;1.23;;;1.13;;
56517;SDS011;42419;48.760;2.322;2023-07-28T09:23:04;3.30;;;1.23;;
56517;SDS011;42419;48.760;2.322;2023-07-28T09:25:30;3.40;;;1.20;;
56517;SDS011;42419;48.760;2.322;2023-07-28T09:27:56;3.03;;;1.30;;
56517;SDS011;42419;48.760;2.322;2023-07-28T09:30:23;2.03;;;1.40;;
56517;SDS011;42419;48.760;2.322;2023-07-28T09:32:50;2.23;;;1.20;;
56517;SDS011;42419;48.760;2.322;2023-07-28T09:35:16;3.20;;;1.20;;
56517;SDS011;42419;48.760;2.322;2023-07-28T09:37:43;1.97;;;1.27;;
56517;SDS011;42419;48.760;2.322;2023-07-28T09:40:10;1.53;;;1.33;;
56517;SDS011;42419;48.760;2.322;2023-07-28T09:42:40;2.17;;;1.30;;
56517;SDS011;42419;48.760;2.322;2023-07-28T09:45:10;1.90;;;1.23;;
56517;SDS011;42419;48.760;2.322;2023-07-28T09:47:36;1.53;;;1.10;;
56517;SDS011;42419;48.760;2.322;2023-07-28T09:50:03;1.83;;;1.00;;
56517;SDS011;42419;48.760;2.322;2023-07-28T09:52:33;2.10;;;1.37;;
56517;SDS011;42419;48.760;2.322;2023-07-28T09:55:05;1.50;;;1.20;;
56517;SDS011;42419;48.760;2.322;2023-07-28T09:57:36;2.10;;;1.30;;
56517;SDS011;42419;48.760;2.322;2023-07-28T10:00:05;1.70;;;1.17;;
56517;SDS011;42419;48.760;2.322;2023-07-28T10:02:33;2.27;;;1.43;;
56517;SDS011;42419;48.760;2.322;2023-07-28T10:05:00;1.90;;;1.10;;
56517;SDS011;42419;48.760;2.322;2023-07-28T10:07:26;1.50;;;1.20;;
56517;SDS011;42419;48.760;2.322;2023-07-28T10:09:52;1.40;;;1.30;;
56517;SDS011;42419;48.760;2.322;2023-07-28T10:12:24;1.60;;;1.27;;
56517;SDS011;42419;48.760;2.322;2023-07-28T10:15:03;2.73;;;1.10;;
56517;SDS011;42419;48.760;2.322;2023-07-28T10:17:33;1.50;;;1.40;;
56517;SDS011;42419;48.760;2.322;2023-07-28T10:20:06;1.60;;;1.30;;
56517;SDS011;42419;48.760;2.322;2023-07-28T10:22:52;2.00;;;1.30;;
56517;SDS011;42419;48.760;2.322;2023-07-28T10:25:24;4.50;;;1.40;;
56517;SDS011;42419;48.760;2.322;2023-07-28T10:27:50;1.93;;;1.40;;
56517;SDS011;42419;48.760;2.322;2023-07-28T10:30:16;1.77;;;1.20;;
56517;SDS011;42419;48.760;2.322;2023-07-28T10:32:42;2.07;;;1.47;;
56517;SDS011;42419;48.760;2.322;2023-07-28T10:37:38;1.40;;;1.20;;
56517;SDS011;42419;48.760;2.322;2023-07-28T10:42:57;1.50;;;1.40;;
56517;SDS011;42419;48.760;2.322;2023-07-28T10:45:24;2.00;;;1.40;;
56517;SDS011;42419;48.760;2.322;2023-07-28T10:47:52;1.93;;;1.40;;
56517;SDS011;42419;48.760;2.322;2023-07-28T10:50:21;3.77;;;1.50;;
56517;SDS011;42419;48.760;2.322;2023-07-28T10:52:48;1.80;;;1.50;;
56517;SDS011;42419;48.760;2.322;2023-07-28T10:55:18;1.70;;;1.53;;
56517;SDS011;42419;48.760;2.322;2023-07-28T10:57:49;1.40;;;1.30;;
56517;SDS011;42419;48.760;2.322;2023-07-28T11:00:16;1.80;;;1.60;;
56517;SDS011;42419;48.760;2.322;2023-07-28T11:05:13;3.13;;;1.70;;
56517;SDS011;42419;48.760;2.322;2023-07-28T11:07:47;1.60;;;1.47;;
56517;SDS011;42419;48.760;2.322;2023-07-28T11:10:13;2.03;;;1.70;;
56517;SDS011;42419;48.760;2.322;2023-07-28T11:12:42;2.20;;;1.60;;
56517;SDS011;42419;48.760;2.322;2023-07-28T11:15:09;1.30;;;1.20;;
56517;SDS011;42419;48.760;2.322;2023-07-28T11:17:37;1.60;;;1.50;;
56517;SDS011;42419;48.760;2.322;2023-07-28T11:20:05;3.03;;;1.57;;
56517;SDS011;42419;48.760;2.322;2023-07-28T11:22:39;1.80;;;1.70;;
56517;SDS011;42419;48.760;2.322;2023-07-28T11:25:08;1.83;;;1.60;;
56517;SDS011;42419;48.760;2.322;2023-07-28T11:27:34;1.80;;;1.40;;
56517;SDS011;42419;48.760;2.322;2023-07-28T11:30:04;1.27;;;1.13;;
56517;SDS011;42419;48.760;2.322;2023-07-28T11:32:36;2.43;;;1.40;;
56517;SDS011;42419;48.760;2.322;2023-07-28T11:35:02;1.80;;;1.40;;
56517;SDS011;42419;48.760;2.322;2023-07-28T11:37:35;1.80;;;1.43;;
56517;SDS011;42419;48.760;2.322;2023-07-28T11:40:02;2.73;;;1.20;;
56517;SDS011;42419;48.760;2.322;2023-07-28T11:42:32;1.37;;;1.27;;
56517;SDS011;42419;48.760;2.322;2023-07-28T11:44:59;1.70;;;1.60;;
56517;SDS011;42419;48.760;2.322;2023-07-28T11:47:25;1.47;;;1.37;;
56517;SDS011;42419;48.760;2.322;2023-07-28T11:49:51;1.40;;;1.30;;
56517;SDS011;42419;48.760;2.322;2023-07-28T11:52:16;1.60;;;1.50;;
56517;SDS011;42419;48.760;2.322;2023-07-28T11:54:43;1.70;;;1.50;;
56517;SDS011;42419;48.760;2.322;2023-07-28T11:57:09;1.33;;;1.23;;
56517;SDS011;42419;48.760;2.322;2023-07-28T11:59:35;1.43;;;1.33;;
56517;SDS011;42419;48.760;2.322;2023-07-28T12:02:01;1.70;;;1.40;;
56517;SDS011;42419;48.760;2.322;2023-07-28T12:04:30;1.87;;;1.60;;
56517;SDS011;42419;48.760;2.322;2023-07-28T12:07:39;1.67;;;1.30;;
56517;SDS011;42419;48.760;2.322;2023-07-28T12:09:52;1.93;;;1.67;;
56517;SDS011;42419;48.760;2.322;2023-07-28T12:12:22;1.40;;;1.30;;
56517;SDS011;42419;48.760;2.322;2023-07-28T12:14:49;1.90;;;1.40;;
56517;SDS011;42419;48.760;2.322;2023-07-28T12:17:20;1.47;;;1.37;;
56517;SDS011;42419;48.760;2.322;2023-07-28T12:20:00;1.60;;;1.37;;
56517;SDS011;42419;48.760;2.322;2023-07-28T12:22:32;1.77;;;1.50;;
56517;SDS011;42419;48.760;2.322;2023-07-28T12:24:57;1.50;;;1.20;;
56517;SDS011;42419;48.760;2.322;2023-07-28T12:27:23;1.47;;;1.23;;
56517;SDS011;42419;48.760;2.322;2023-07-28T12:29:51;1.30;;;1.20;;
56517;SDS011;42419;48.760;2.322;2023-07-28T12:32:17;1.30;;;1.20;;
56517;SDS011;42419;48.760;2.322;2023-07-28T12:34:43;1.40;;;1.30;;
56517;SDS011;42419;48.760;2.322;2023-07-28T12:37:08;3.70;;;1.20;;
56517;SDS011;42419;48.760;2.322;2023-07-28T12:39:37;1.53;;;1.10;;
56517;SDS011;42419;48.760;2.322;2023-07-28T12:42:06;1.47;;;1.33;;
56517;SDS011;42419;48.760;2.322;2023-07-28T12:44:33;1.33;;;0.97;;
56517;SDS011;42419;48.760;2.322;2023-07-28T12:46:58;1.20;;;1.07;;
56517;SDS011;42419;48.760;2.322;2023-07-28T12:49:24;1.00;;;0.90;;
56517;SDS011;42419;48.760;2.322;2023-07-28T12:51:49;1.00;;;0.90;;
56517;SDS011;42419;48.760;2.322;2023-07-28T12:54:15;1.20;;;0.93;;
56517;SDS011;42419;48.760;2.322;2023-07-28T12:56:40;1.20;;;0.90;;
56517;SDS011;42419;48.760;2.322;2023-07-28T12:59:06;1.10;;;0.90;;
56517;SDS011;42419;48.760;2.322;2023-07-28T13:01:31;1.80;;;1.10;;
56517;SDS011;42419;48.760;2.322;2023-07-28T13:03:56;1.20;;;1.10;;
56517;SDS011;42419;48.760;2.322;2023-07-28T13:06:22;1.17;;;0.93;;
56517;SDS011;42419;48.760;2.322;2023-07-28T13:08:47;2.77;;;1.00;;
56517;SDS011;42419;48.760;2.322;2023-07-28T13:11:12;1.37;;;1.07;;
56517;SDS011;42419;48.760;2.322;2023-07-28T13:13:39;1.20;;;1.00;;
56517;SDS011;42419;48.760;2.322;2023-07-28T13:16:05;1.20;;;1.10;;
56517;SDS011;42419;48.760;2.322;2023-07-28T13:18:31;1.10;;;1.00;;
56517;SDS011;42419;48.760;2.322;2023-07-28T13:20:57;1.30;;;1.13;;
56517;SDS011;42419;48.760;2.322;2023-07-28T13:23:23;1.60;;;0.97;;
56517;SDS011;42419;48.760;2.322;2023-07-28T13:25:48;1.20;;;1.10;;
56517;SDS011;42419;48.760;2.322;2023-07-28T13:28:13;1.10;;;1.00;;
56517;SDS011;42419;48.760;2.322;2023-07-28T13:30:39;1.23;;;1.00;;
56517;SDS011;42419;48.760;2.322;2023-07-28T13:33:05;1.30;;;1.07;;
56517;SDS011;42419;48.760;2.322;2023-07-28T13:35:31;1.83;;;1.20;;
56517;SDS011;42419;48.760;2.322;2023-07-28T13:37:57;1.40;;;1.20;;
56517;SDS011;42419;48.760;2.322;2023-07-28T13:40:22;1.10;;;0.90;;
56517;SDS011;42419;48.760;2.322;2023-07-28T13:42:48;1.00;;;0.80;;
56517;SDS011;42419;48.760;2.322;2023-07-28T13:45:13;1.40;;;0.90;;
56517;SDS011;42419;48.760;2.322;2023-07-28T13:47:38;1.60;;;1.10;;
56517;SDS011;42419;48.760;2.322;2023-07-28T13:50:04;2.80;;;1.13;;
56517;SDS011;42419;48.760;2.322;2023-07-28T13:52:29;2.17;;;1.10;;
56517;SDS011;42419;48.760;2.322;2023-07-28T13:54:55;1.30;;;1.00;;
56517;SDS011;42419;48.760;2.322;2023-07-28T13:57:20;1.30;;;1.20;;
56517;SDS011;42419;48.760;2.322;2023-07-28T13:59:45;1.20;;;1.00;;
56517;SDS011;42419;48.760;2.322;2023-07-28T14:02:11;1.30;;;1.20;;
56517;SDS011;42419;48.760;2.322;2023-07-28T14:04:36;1.30;;;1.10;;
56517;SDS011;42419;48.760;2.322;2023-07-28T14:07:01;1.50;;;1.00;;
56517;SDS011;42419;48.760;2.322;2023-07-28T14:09:26;1.53;;;1.10;;
56517;SDS011;42419;48.760;2.322;2023-07-28T14:11:52;1.20;;;1.00;;
56517;SDS011;42419;48.760;2.322;2023-07-28T14:14:17;1.20;;;1.00;;
56517;SDS011;42419;48.760;2.322;2023-07-28T14:16:42;1.37;;;1.27;;
56517;SDS011;42419;48.760;2.322;2023-07-28T14:19:08;1.20;;;1.00;;
56517;SDS011;42419;48.760;2.322;2023-07-28T14:21:33;1.37;;;1.20;;
56517;SDS011;42419;48.760;2.322;2023-07-28T14:23:59;1.30;;;1.00;;
56517;SDS011;42419;48.760;2.322;2023-07-28T14:26:24;1.20;;;1.10;;
56517;SDS011;42419;48.760;2.322;2023-07-28T14:28:49;1.57;;;1.00;;
56517;SDS011;42419;48.760;2.322;2023-07-28T14:31:15;1.10;;;1.00;;
56517;SDS011;42419;48.760;2.322;2023-07-28T14:33:40;1.30;;;1.10;;
56517;SDS011;42419;48.760;2.322;2023-07-28T14:36:05;1.50;;;1.10;;
56517;SDS011;42419;48.760;2.322;2023-07-28T14:38:31;1.20;;;1.00;;
56517;SDS011;42419;48.760;2.322;2023-07-28T14:40:56;1.50;;;0.90;;
56517;SDS011;42419;48.760;2.322;2023-07-28T14:43:21;1.30;;;1.00;;
56517;SDS011;42419;48.760;2.322;2023-07-28T14:45:48;1.20;;;1.10;;
56517;SDS011;42419;48.760;2.322;2023-07-28T14:48:15;3.53;;;1.13;;
56517;SDS011;42419;48.760;2.322;2023-07-28T14:50:40;1.37;;;1.00;;
56517;SDS011;42419;48.760;2.322;2023-07-28T14:53:27;1.37;;;1.07;;